• Join FlightAware (Why Join?)
  • Login
  • US Flag 
04:32AM EDT


 

Airport Tracker/Info


-or-


 

Live Flight TrackerFlight Track Log ✈ SKW4664 ✈ 03-May-2013 ✈ KFSD - KMSP

Flight Track Log - Related Links

Times and Time Zones

All times are in EDT time to prevent confusion due to time zone crossing. See the SKW4664 flight status page for this flight to view local times or setup timezone preferences in your user account.

Time Position Orientation Groundspeed Altitude Reporting Facility
EDT Latitude Longitude Course Direction KTS MPH feet Rate Location/Type
12:11PM 43.6033 -96.7250 52° Northeast 149 171 2,500  Level Minneapolis Center
12:12PM 43.6389 -96.6553 55° Northeast 183 211 4,700 2,280 Climbing Minneapolis Center
12:13PM 43.6792 -96.5831 52° Northeast 209 241 7,300 2,580 Climbing Minneapolis Center
12:14PM 43.8416 -96.2544 53° Northeast  Level FlightAware Approximate
12:14PM 43.7222 -96.5050 53° Northeast 236 272 10,000  Level Minneapolis Center
12:15PM 43.9086 -96.1314 53° Northeast  Level FlightAware Approximate
12:15PM 43.7681 -96.4219 53° Northeast 254 292 12,100  Level Minneapolis Center
12:16PM 43.9766 -96.0091 52° Northeast  Level FlightAware Approximate
12:16PM 43.8206 -96.3264 53° Northeast 290 334 13,800  Level Minneapolis Center
12:17PM 43.8767 -96.2247 53° Northeast 326 375 15,500 1,740 Climbing Minneapolis Center
12:18PM 43.9472 -96.0969 52° Northeast 349 402 17,400 1,260 Climbing Minneapolis Center
12:19PM 44.0078 -95.9861 53° Northeast 364 419 18,200 1,020 Climbing Minneapolis Center
12:20PM 44.0708 -95.8717 52° Northeast 376 433 19,500 1,200 Climbing Minneapolis Center
12:21PM 44.1353 -95.7514 53° Northeast 386 444 20,700 720 Climbing Minneapolis Center
12:22PM 44.2017 -95.6289 53° Northeast 394 453 21,000 120 Climbing Minneapolis Center
12:23PM 44.2689 -95.5058 53° Northeast 399 459 21,000  Level Minneapolis Center
12:24PM 44.3467 -95.3581 54° Northeast 397 457 21,000  Level Minneapolis Center
12:25PM 44.4106 -95.2361 54° Northeast 394 453 21,000 -60 Level Minneapolis Center
12:26PM 44.4736 -95.1133 54° Northeast 391 450 20,900 -900 Descending Minneapolis Center
12:27PM 44.5125 -94.9356 73° East 400 460 19,100 -1,500 Descending Minneapolis Center
12:28PM 44.5422 -94.8142 71° East 410 472 17,900 -1,200 Descending Minneapolis Center
12:29PM 44.5728 -94.6781 72° East 386 444 16,700 -1,500 Descending Minneapolis Center
12:30PM 44.6081 -94.5281 72° East 346 398 14,900 -1,800 Descending Minneapolis Center
12:31PM 44.6422 -94.3778 72° East 338 389 13,100 -1,500 Descending Minneapolis Center
12:32PM 44.6706 -94.2542 72° East 336 387 11,800 -1,080 Descending Minneapolis Center
12:33PM 44.6981 -94.1331 72° East 327 376 11,000 -420 Descending Minneapolis Center
12:34PM 44.7244 -94.0144 73° East 321 369 11,000  Level Minneapolis Center
12:35PM 44.7514 -93.8931 73° East 326 375 11,000  Level Minneapolis Center
12:37PM 44.7797 -93.7694 72° East 332 382 11,000  Level Minneapolis Center
12:38PM 44.8128 -93.6192 73° East 335 386 11,000 -240 Level Minneapolis Center
12:39PM 44.8439 -93.4764 73° East 315 362 10,600 -600 Descending Minneapolis Center
12:40PM 44.8692 -93.3947 66° East 291 335 9,800 -1,260 Descending Minneapolis Center
12:41PM 44.8236 -93.2906 122° Southeast 270 311 8,000 -1,560 Descending Minneapolis Center
12:42PM 44.7781 -93.2058 127° Southeast 264 304 6,600 -1,320 Descending Minneapolis Center
12:43PM 44.7436 -93.1131 118° Southeast 260 299 5,300 -1,020 Descending Minneapolis Center
12:44PM 44.7408 -93.0269 93° East 223 257 4,600 -660 Descending Minneapolis Center
12:45PM 44.7914 -93.0078 15° North 211 243 4,000 -600 Descending Minneapolis Center